sensor_id;sensor_type;location;lat;lon;timestamp;pressure;altitude;pressure_sealevel;temperature
62180;BMP280;48172;53.374;10.722;2022-12-15T00:01:53;100483.88;;;19.42
62180;BMP280;48172;53.374;10.722;2022-12-15T00:04:38;100479.06;;;19.37
62180;BMP280;48172;53.374;10.722;2022-12-15T00:07:23;100473.47;;;19.31
62180;BMP280;48172;53.374;10.722;2022-12-15T00:10:08;100474.38;;;19.28
62180;BMP280;48172;53.374;10.722;2022-12-15T00:12:53;100470.63;;;19.25
62180;BMP280;48172;53.374;10.722;2022-12-15T00:15:38;100478.88;;;19.22
62180;BMP280;48172;53.374;10.722;2022-12-15T00:18:23;100472.53;;;19.16
62180;BMP280;48172;53.374;10.722;2022-12-15T00:21:08;100463.81;;;19.12
62180;BMP280;48172;53.374;10.722;2022-12-15T00:23:53;100463.50;;;19.10
62180;BMP280;48172;53.374;10.722;2022-12-15T00:26:38;100459.44;;;19.05
62180;BMP280;48172;53.374;10.722;2022-12-15T00:29:23;100454.59;;;19.00
62180;BMP280;48172;53.374;10.722;2022-12-15T00:32:07;100460.91;;;18.97
62180;BMP280;48172;53.374;10.722;2022-12-15T00:34:52;100452.94;;;18.93
62180;BMP280;48172;53.374;10.722;2022-12-15T00:37:37;100454.28;;;18.89
62180;BMP280;48172;53.374;10.722;2022-12-15T00:40:22;100444.03;;;18.84
62180;BMP280;48172;53.374;10.722;2022-12-15T00:42:48;100451.53;;;18.80
62180;BMP280;48172;53.374;10.722;2022-12-15T00:45:15;100443.09;;;18.78
62180;BMP280;48172;53.374;10.722;2022-12-15T00:47:42;100447.75;;;18.77
62180;BMP280;48172;53.374;10.722;2022-12-15T00:50:08;100449.88;;;18.73
62180;BMP280;48172;53.374;10.722;2022-12-15T00:52:53;100452.25;;;18.71
62180;BMP280;48172;53.374;10.722;2022-12-15T00:55:38;100440.81;;;18.67
62180;BMP280;48172;53.374;10.722;2022-12-15T00:58:23;100442.91;;;18.63
62180;BMP280;48172;53.374;10.722;2022-12-15T01:01:09;100450.69;;;18.61
62180;BMP280;48172;53.374;10.722;2022-12-15T01:03:54;100453.53;;;18.57
62180;BMP280;48172;53.374;10.722;2022-12-15T01:06:40;100451.41;;;18.52
62180;BMP280;48172;53.374;10.722;2022-12-15T01:09:25;100461.94;;;18.50
62180;BMP280;48172;53.374;10.722;2022-12-15T01:12:10;100458.16;;;18.48
62180;BMP280;48172;53.374;10.722;2022-12-15T01:14:55;100461.00;;;18.44
62180;BMP280;48172;53.374;10.722;2022-12-15T01:17:40;100460.38;;;18.40
62180;BMP280;48172;53.374;10.722;2022-12-15T01:20:24;100459.31;;;18.38
62180;BMP280;48172;53.374;10.722;2022-12-15T01:22:54;100459.78;;;18.36
62180;BMP280;48172;53.374;10.722;2022-12-15T01:25:23;100463.34;;;18.33
62180;BMP280;48172;53.374;10.722;2022-12-15T01:27:50;100454.59;;;18.29
62180;BMP280;48172;53.374;10.722;2022-12-15T01:30:19;100450.38;;;18.28
62180;BMP280;48172;53.374;10.722;2022-12-15T01:32:46;100461.31;;;18.24
62180;BMP280;48172;53.374;10.722;2022-12-15T01:35:13;100464.47;;;18.23
62180;BMP280;48172;53.374;10.722;2022-12-15T01:37:40;100451.09;;;18.19
62180;BMP280;48172;53.374;10.722;2022-12-15T01:40:10;100465.47;;;18.16
62180;BMP280;48172;53.374;10.722;2022-12-15T01:42:55;100454.34;;;18.14
62180;BMP280;48172;53.374;10.722;2022-12-15T01:48:09;100457.63;;;18.09
62180;BMP280;48172;53.374;10.722;2022-12-15T01:53:56;100476.78;;;18.02
62180;BMP280;48172;53.374;10.722;2022-12-15T01:56:26;100491.19;;;17.99
62180;BMP280;48172;53.374;10.722;2022-12-15T01:59:01;100488.16;;;17.97
62180;BMP280;48172;53.374;10.722;2022-12-15T02:01:28;100487.53;;;17.93
62180;BMP280;48172;53.374;10.722;2022-12-15T02:03:55;100492.63;;;17.91
62180;BMP280;48172;53.374;10.722;2022-12-15T02:06:23;100488.84;;;17.88
62180;BMP280;48172;53.374;10.722;2022-12-15T02:08:53;100491.56;;;17.88
62180;BMP280;48172;53.374;10.722;2022-12-15T02:31:15;100482.78;;;17.62
62180;BMP280;48172;53.374;10.722;2022-12-15T02:34:12;100485.13;;;17.60
62180;BMP280;48172;53.374;10.722;2022-12-15T02:36:44;100482.13;;;17.58
62180;BMP280;48172;53.374;10.722;2022-12-15T02:39:13;100474.88;;;17.55
62180;BMP280;48172;53.374;10.722;2022-12-15T02:41:42;100487.63;;;17.55
62180;BMP280;48172;53.374;10.722;2022-12-15T03:00:29;100488.19;;;17.37
62180;BMP280;48172;53.374;10.722;2022-12-15T03:02:57;100480.25;;;17.33
62180;BMP280;48172;53.374;10.722;2022-12-15T03:05:24;100489.81;;;17.34
62180;BMP280;48172;53.374;10.722;2022-12-15T03:07:52;100506.50;;;17.33
62180;BMP280;48172;53.374;10.722;2022-12-15T03:10:22;100495.34;;;17.31
62180;BMP280;48172;53.374;10.722;2022-12-15T03:12:50;100486.94;;;17.29
62180;BMP280;48172;53.374;10.722;2022-12-15T03:15:17;100486.28;;;17.25
62180;BMP280;48172;53.374;10.722;2022-12-15T03:17:44;100480.13;;;17.24
62180;BMP280;48172;53.374;10.722;2022-12-15T03:20:11;100495.59;;;17.24
62180;BMP280;48172;53.374;10.722;2022-12-15T03:22:38;100496.00;;;17.22
62180;BMP280;48172;53.374;10.722;2022-12-15T03:25:04;100507.22;;;17.21
62180;BMP280;48172;53.374;10.722;2022-12-15T03:27:31;100501.06;;;17.20
62180;BMP280;48172;53.374;10.722;2022-12-15T03:29:58;100487.69;;;17.17
62180;BMP280;48172;53.374;10.722;2022-12-15T03:32:24;100498.16;;;17.15
62180;BMP280;48172;53.374;10.722;2022-12-15T03:34:51;100498.59;;;17.13
62180;BMP280;48172;53.374;10.722;2022-12-15T03:37:17;100505.19;;;17.12
62180;BMP280;48172;53.374;10.722;2022-12-15T03:39:43;100495.16;;;17.13
62180;BMP280;48172;53.374;10.722;2022-12-15T03:42:10;100492.13;;;17.11
62180;BMP280;48172;53.374;10.722;2022-12-15T03:44:36;100482.19;;;17.08
62180;BMP280;48172;53.374;10.722;2022-12-15T03:47:03;100479.16;;;17.05
62180;BMP280;48172;53.374;10.722;2022-12-15T03:49:31;100483.50;;;17.03
62180;BMP280;48172;53.374;10.722;2022-12-15T03:51:57;100493.97;;;17.01
62180;BMP280;48172;53.374;10.722;2022-12-15T03:54:24;100495.91;;;17.00
62180;BMP280;48172;53.374;10.722;2022-12-15T03:56:50;100497.06;;;16.99
62180;BMP280;48172;53.374;10.722;2022-12-15T03:59:17;100488.66;;;16.97
62180;BMP280;48172;53.374;10.722;2022-12-15T04:01:45;100498.34;;;16.95
62180;BMP280;48172;53.374;10.722;2022-12-15T04:04:14;100496.13;;;16.93
62180;BMP280;48172;53.374;10.722;2022-12-15T04:06:40;100491.91;;;16.92
62180;BMP280;48172;53.374;10.722;2022-12-15T04:09:07;100490.03;;;16.89
62180;BMP280;48172;53.374;10.722;2022-12-15T04:11:33;100505.94;;;16.87
62180;BMP280;48172;53.374;10.722;2022-12-15T04:13:59;100502.47;;;16.87
62180;BMP280;48172;53.374;10.722;2022-12-15T04:16:26;100502.88;;;16.85
62180;BMP280;48172;53.374;10.722;2022-12-15T04:18:53;100508.41;;;16.82
62180;BMP280;48172;53.374;10.722;2022-12-15T04:21:39;100516.91;;;16.80
62180;BMP280;48172;53.374;10.722;2022-12-15T04:24:06;100516.59;;;16.78
62180;BMP280;48172;53.374;10.722;2022-12-15T04:26:51;100518.94;;;16.76
62180;BMP280;48172;53.374;10.722;2022-12-15T04:29:36;100528.22;;;16.75
62180;BMP280;48172;53.374;10.722;2022-12-15T04:32:20;100531.81;;;16.72
62180;BMP280;48172;53.374;10.722;2022-12-15T04:35:05;100524.88;;;16.71
62180;BMP280;48172;53.374;10.722;2022-12-15T04:37:50;100522.63;;;16.69
62180;BMP280;48172;53.374;10.722;2022-12-15T04:40:35;100517.31;;;16.66
62180;BMP280;48172;53.374;10.722;2022-12-15T04:43:21;100515.50;;;16.63
62180;BMP280;48172;53.374;10.722;2022-12-15T04:46:06;100516.66;;;16.62
62180;BMP280;48172;53.374;10.722;2022-12-15T04:48:51;100525.63;;;16.59
62180;BMP280;48172;53.374;10.722;2022-12-15T04:51:36;100526.03;;;16.57
62180;BMP280;48172;53.374;10.722;2022-12-15T04:54:21;100526.47;;;16.56
62180;BMP280;48172;53.374;10.722;2022-12-15T04:57:06;100536.16;;;16.53
62180;BMP280;48172;53.374;10.722;2022-12-15T04:59:50;100539.28;;;16.52
62180;BMP280;48172;53.374;10.722;2022-12-15T05:02:35;100540.03;;;16.52
62180;BMP280;48172;53.374;10.722;2022-12-15T05:05:20;100551.25;;;16.51
62180;BMP280;48172;53.374;10.722;2022-12-15T05:08:05;100541.75;;;16.46
62180;BMP280;48172;53.374;10.722;2022-12-15T05:10:50;100549.09;;;16.46
62180;BMP280;48172;53.374;10.722;2022-12-15T05:13:34;100543.75;;;16.42
62180;BMP280;48172;53.374;10.722;2022-12-15T05:16:19;100544.97;;;16.41
62180;BMP280;48172;53.374;10.722;2022-12-15T05:19:04;100540.78;;;16.40
62180;BMP280;48172;53.374;10.722;2022-12-15T05:21:49;100543.84;;;16.38
62180;BMP280;48172;53.374;10.722;2022-12-15T05:24:34;100533.06;;;16.38
62180;BMP280;48172;53.374;10.722;2022-12-15T05:27:19;100536.66;;;16.35
62180;BMP280;48172;53.374;10.722;2022-12-15T05:30:04;100540.16;;;16.32
62180;BMP280;48172;53.374;10.722;2022-12-15T05:32:49;100553.34;;;16.30
62180;BMP280;48172;53.374;10.722;2022-12-15T05:35:17;100549.91;;;16.30
62180;BMP280;48172;53.374;10.722;2022-12-15T05:37:43;100559.56;;;16.27
62180;BMP280;48172;53.374;10.722;2022-12-15T05:40:10;100561.06;;;16.28
62180;BMP280;48172;53.374;10.722;2022-12-15T05:42:37;100560.75;;;16.26
62180;BMP280;48172;53.374;10.722;2022-12-15T05:45:03;100566.97;;;16.23
62180;BMP280;48172;53.374;10.722;2022-12-15T05:47:30;100571.63;;;16.23
62180;BMP280;48172;53.374;10.722;2022-12-15T05:49:56;100570.09;;;16.22
62180;BMP280;48172;53.374;10.722;2022-12-15T05:52:23;100562.47;;;16.20
62180;BMP280;48172;53.374;10.722;2022-12-15T05:54:50;100574.41;;;16.19
62180;BMP280;48172;53.374;10.722;2022-12-15T05:57:16;100574.41;;;16.19
62180;BMP280;48172;53.374;10.722;2022-12-15T05:59:43;100570.94;;;16.19
62180;BMP280;48172;53.374;10.722;2022-12-15T06:02:09;100570.94;;;16.19
62180;BMP280;48172;53.374;10.722;2022-12-15T06:04:36;100577.84;;;16.20
62180;BMP280;48172;53.374;10.722;2022-12-15T06:07:03;100594.03;;;16.20
62180;BMP280;48172;53.374;10.722;2022-12-15T06:09:29;100589.72;;;16.22
62180;BMP280;48172;53.374;10.722;2022-12-15T06:11:56;100593.19;;;16.23
62180;BMP280;48172;53.374;10.722;2022-12-15T06:14:22;100587.38;;;16.24
62180;BMP280;48172;53.374;10.722;2022-12-15T06:16:49;100592.34;;;16.26
62180;BMP280;48172;53.374;10.722;2022-12-15T06:19:17;100594.19;;;16.29
62180;BMP280;48172;53.374;10.722;2022-12-15T06:21:44;100587.63;;;16.30
62180;BMP280;48172;53.374;10.722;2022-12-15T06:24:11;100592.91;;;16.33
62180;BMP280;48172;53.374;10.722;2022-12-15T06:26:38;100594.31;;;16.38
62180;BMP280;48172;53.374;10.722;2022-12-15T06:29:07;100600.84;;;16.40
62180;BMP280;48172;53.374;10.722;2022-12-15T06:31:34;100594.16;;;16.45
62180;BMP280;48172;53.374;10.722;2022-12-15T06:34:03;100598.59;;;16.52
62180;BMP280;48172;53.374;10.722;2022-12-15T06:36:30;100615.34;;;16.59
62180;BMP280;48172;53.374;10.722;2022-12-15T06:38:58;100616.72;;;16.67
62180;BMP280;48172;53.374;10.722;2022-12-15T06:41:26;100618.34;;;16.78
62180;BMP280;48172;53.374;10.722;2022-12-15T06:43:54;100623.88;;;16.87
62180;BMP280;48172;53.374;10.722;2022-12-15T06:46:24;100612.03;;;16.97
62180;BMP280;48172;53.374;10.722;2022-12-15T06:48:51;100616.38;;;17.07
62180;BMP280;48172;53.374;10.722;2022-12-15T06:51:19;100615.31;;;17.17
62180;BMP280;48172;53.374;10.722;2022-12-15T06:53:46;100629.28;;;17.28
62180;BMP280;48172;53.374;10.722;2022-12-15T06:56:25;100628.09;;;17.42
62180;BMP280;48172;53.374;10.722;2022-12-15T06:58:59;100633.94;;;17.53
62180;BMP280;48172;53.374;10.722;2022-12-15T07:01:26;100643.66;;;17.63
62180;BMP280;48172;53.374;10.722;2022-12-15T07:03:53;100642.56;;;17.74
62180;BMP280;48172;53.374;10.722;2022-12-15T07:06:20;100634.75;;;17.88
62180;BMP280;48172;53.374;10.722;2022-12-15T07:08:48;100648.56;;;18.03
62180;BMP280;48172;53.374;10.722;2022-12-15T07:11:19;100644.78;;;18.13
62180;BMP280;48172;53.374;10.722;2022-12-15T07:13:50;100651.47;;;18.21
62180;BMP280;48172;53.374;10.722;2022-12-15T07:16:18;100657.38;;;18.29
62180;BMP280;48172;53.374;10.722;2022-12-15T07:18:45;100663.56;;;18.29
62180;BMP280;48172;53.374;10.722;2022-12-15T07:21:11;100663.75;;;18.35
62180;BMP280;48172;53.374;10.722;2022-12-15T07:23:38;100664.72;;;18.41
62180;BMP280;48172;53.374;10.722;2022-12-15T07:26:20;100668.16;;;18.42
62180;BMP280;48172;53.374;10.722;2022-12-15T07:28:47;100672.19;;;18.50
62180;BMP280;48172;53.374;10.722;2022-12-15T07:31:13;100680.03;;;18.57
62180;BMP280;48172;53.374;10.722;2022-12-15T07:33:41;100681.41;;;18.61
62180;BMP280;48172;53.374;10.722;2022-12-15T07:36:07;100686.13;;;18.70
62180;BMP280;48172;53.374;10.722;2022-12-15T07:38:34;100692.50;;;18.76
62180;BMP280;48172;53.374;10.722;2022-12-15T07:41:03;100694.94;;;18.83
62180;BMP280;48172;53.374;10.722;2022-12-15T07:43:30;100695.47;;;18.91
62180;BMP280;48172;53.374;10.722;2022-12-15T07:45:57;100702.88;;;18.99
62180;BMP280;48172;53.374;10.722;2022-12-15T07:48:24;100711.50;;;19.07
62180;BMP280;48172;53.374;10.722;2022-12-15T07:50:52;100715.03;;;19.17
62180;BMP280;48172;53.374;10.722;2022-12-15T07:53:33;100717.34;;;19.27
62180;BMP280;48172;53.374;10.722;2022-12-15T07:56:01;100718.16;;;19.37
62180;BMP280;48172;53.374;10.722;2022-12-15T07:58:35;100727.06;;;19.47
62180;BMP280;48172;53.374;10.722;2022-12-15T08:01:04;100722.03;;;19.58
62180;BMP280;48172;53.374;10.722;2022-12-15T08:03:31;100732.91;;;19.67
62180;BMP280;48172;53.374;10.722;2022-12-15T08:06:06;100726.75;;;19.76
62180;BMP280;48172;53.374;10.722;2022-12-15T08:08:34;100734.47;;;19.86
62180;BMP280;48172;53.374;10.722;2022-12-15T08:11:05;100737.22;;;19.95
62180;BMP280;48172;53.374;10.722;2022-12-15T08:13:33;100736.47;;;20.04
62180;BMP280;48172;53.374;10.722;2022-12-15T08:16:20;100751.25;;;20.12
62180;BMP280;48172;53.374;10.722;2022-12-15T08:18:46;100740.16;;;20.19
62180;BMP280;48172;53.374;10.722;2022-12-15T08:21:14;100742.56;;;20.26
62180;BMP280;48172;53.374;10.722;2022-12-15T08:23:40;100743.34;;;20.36
62180;BMP280;48172;53.374;10.722;2022-12-15T08:26:09;100740.81;;;20.42
62180;BMP280;48172;53.374;10.722;2022-12-15T08:28:37;100737.28;;;20.50
62180;BMP280;48172;53.374;10.722;2022-12-15T08:31:10;100737.78;;;20.58
62180;BMP280;48172;53.374;10.722;2022-12-15T08:33:37;100743.34;;;20.63
62180;BMP280;48172;53.374;10.722;2022-12-15T08:36:05;100743.06;;;20.71
62180;BMP280;48172;53.374;10.722;2022-12-15T08:38:34;100743.94;;;20.77
62180;BMP280;48172;53.374;10.722;2022-12-15T08:41:08;100742.88;;;20.83
62180;BMP280;48172;53.374;10.722;2022-12-15T08:43:35;100743.50;;;20.87
62180;BMP280;48172;53.374;10.722;2022-12-15T08:46:15;100751.75;;;20.93
62180;BMP280;48172;53.374;10.722;2022-12-15T08:48:42;100751.47;;;21.00
62180;BMP280;48172;53.374;10.722;2022-12-15T08:51:08;100759.28;;;21.07
62180;BMP280;48172;53.374;10.722;2022-12-15T08:53:36;100765.31;;;21.11
62180;BMP280;48172;53.374;10.722;2022-12-15T08:56:07;100769.69;;;21.18
62180;BMP280;48172;53.374;10.722;2022-12-15T08:58:35;100778.00;;;21.23
62180;BMP280;48172;53.374;10.722;2022-12-15T09:01:04;100785.81;;;21.30
62180;BMP280;48172;53.374;10.722;2022-12-15T09:03:32;100778.25;;;21.35
62180;BMP280;48172;53.374;10.722;2022-12-15T09:06:01;100779.44;;;21.43
62180;BMP280;48172;53.374;10.722;2022-12-15T09:08:29;100783.50;;;21.47
62180;BMP280;48172;53.374;10.722;2022-12-15T09:10:57;100782.41;;;21.54
62180;BMP280;48172;53.374;10.722;2022-12-15T09:13:24;100789.97;;;21.59
62180;BMP280;48172;53.374;10.722;2022-12-15T09:16:01;100786.63;;;21.64
62180;BMP280;48172;53.374;10.722;2022-12-15T09:18:36;100791.47;;;21.69
62180;BMP280;48172;53.374;10.722;2022-12-15T09:21:05;100779.19;;;21.74
62180;BMP280;48172;53.374;10.722;2022-12-15T09:23:33;100782.94;;;21.76
62180;BMP280;48172;53.374;10.722;2022-12-15T09:26:10;100795.47;;;21.83
62180;BMP280;48172;53.374;10.722;2022-12-15T09:28:37;100797.25;;;21.86
62180;BMP280;48172;53.374;10.722;2022-12-15T09:31:06;100785.72;;;21.91
62180;BMP280;48172;53.374;10.722;2022-12-15T09:33:34;100799.66;;;21.93
62180;BMP280;48172;53.374;10.722;2022-12-15T09:36:02;100792.81;;;21.97
62180;BMP280;48172;53.374;10.722;2022-12-15T09:38:29;100790.69;;;22.02
62180;BMP280;48172;53.374;10.722;2022-12-15T09:40:56;100798.22;;;22.07
62180;BMP280;48172;53.374;10.722;2022-12-15T09:43:25;100786.13;;;22.08
62180;BMP280;48172;53.374;10.722;2022-12-15T09:46:13;100798.34;;;22.12
62180;BMP280;48172;53.374;10.722;2022-12-15T09:48:43;100802.53;;;22.13
62180;BMP280;48172;53.374;10.722;2022-12-15T09:51:13;100812.03;;;22.18
62180;BMP280;48172;53.374;10.722;2022-12-15T09:53:41;100799.50;;;22.20
62180;BMP280;48172;53.374;10.722;2022-12-15T09:56:43;100788.63;;;22.20
62180;BMP280;48172;53.374;10.722;2022-12-15T10:04:33;100797.94;;;22.28
62180;BMP280;48172;53.374;10.722;2022-12-15T10:07:28;100787.03;;;22.28
62180;BMP280;48172;53.374;10.722;2022-12-15T10:09:55;100787.78;;;22.29
62180;BMP280;48172;53.374;10.722;2022-12-15T10:12:29;100782.06;;;22.27
62180;BMP280;48172;53.374;10.722;2022-12-15T10:15:13;100787.03;;;22.28
62180;BMP280;48172;53.374;10.722;2022-12-15T10:17:48;100787.97;;;22.25
62180;BMP280;48172;53.374;10.722;2022-12-15T10:20:26;100794.66;;;22.24
62180;BMP280;48172;53.374;10.722;2022-12-15T10:22:56;100794.66;;;22.24
62180;BMP280;48172;53.374;10.722;2022-12-15T10:25:30;100794.34;;;22.22
62180;BMP280;48172;53.374;10.722;2022-12-15T10:31:12;100793.31;;;22.20
62180;BMP280;48172;53.374;10.722;2022-12-15T10:33:42;100799.50;;;22.20
62180;BMP280;48172;53.374;10.722;2022-12-15T10:36:15;100800.69;;;22.19
62180;BMP280;48172;53.374;10.722;2022-12-15T10:38:45;100810.56;;;22.17
62180;BMP280;48172;53.374;10.722;2022-12-15T10:41:25;100803.63;;;22.16
62180;BMP280;48172;53.374;10.722;2022-12-15T10:43:52;100809.06;;;22.16
62180;BMP280;48172;53.374;10.722;2022-12-15T10:46:28;100800.13;;;22.15
62180;BMP280;48172;53.374;10.722;2022-12-15T10:48:57;100804.38;;;22.16
62180;BMP280;48172;53.374;10.722;2022-12-15T10:51:46;100800.31;;;22.12
62180;BMP280;48172;53.374;10.722;2022-12-15T10:54:15;100800.56;;;22.14
62180;BMP280;48172;53.374;10.722;2022-12-15T10:56:59;100802.28;;;22.11
62180;BMP280;48172;53.374;10.722;2022-12-15T10:59:32;100801.69;;;22.07
62180;BMP280;48172;53.374;10.722;2022-12-15T11:07:35;100806.53;;;22.03
62180;BMP280;48172;53.374;10.722;2022-12-15T11:10:15;100811.22;;;22.03
62180;BMP280;48172;53.374;10.722;2022-12-15T11:12:43;100809.72;;;22.02
62180;BMP280;48172;53.374;10.722;2022-12-15T11:18:01;100796.59;;;22.00
62180;BMP280;48172;53.374;10.722;2022-12-15T11:20:36;100802.78;;;22.00
62180;BMP280;48172;53.374;10.722;2022-12-15T11:25:45;100820.47;;;21.96
62180;BMP280;48172;53.374;10.722;2022-12-15T11:28:23;100823.19;;;21.96
62180;BMP280;48172;53.374;10.722;2022-12-15T11:30:58;100817.75;;;21.96
62180;BMP280;48172;53.374;10.722;2022-12-15T11:33:25;100820.94;;;21.94
62180;BMP280;48172;53.374;10.722;2022-12-15T11:38:42;100822.44;;;21.95
62180;BMP280;48172;53.374;10.722;2022-12-15T11:41:34;100815.22;;;21.92
62180;BMP280;48172;53.374;10.722;2022-12-15T11:47:18;100813.25;;;21.93
62180;BMP280;48172;53.374;10.722;2022-12-15T12:00:42;100813.91;;;21.79
62180;BMP280;48172;53.374;10.722;2022-12-15T12:06:22;100816.03;;;21.75
62180;BMP280;48172;53.374;10.722;2022-12-15T12:08:59;100814.22;;;21.72
62180;BMP280;48172;53.374;10.722;2022-12-15T12:11:39;100813.97;;;21.70
62180;BMP280;48172;53.374;10.722;2022-12-15T12:21:55;100822.00;;;21.55
62180;BMP280;48172;53.374;10.722;2022-12-15T12:24:27;100820.94;;;21.52
62180;BMP280;48172;53.374;10.722;2022-12-15T12:27:09;100822.91;;;21.52
62180;BMP280;48172;53.374;10.722;2022-12-15T12:29:51;100818.69;;;21.51
62180;BMP280;48172;53.374;10.722;2022-12-15T12:38:00;100832.44;;;21.47
62180;BMP280;48172;53.374;10.722;2022-12-15T12:41:10;100827.16;;;21.44
62180;BMP280;48172;53.374;10.722;2022-12-15T12:43:46;100822.94;;;21.43
62180;BMP280;48172;53.374;10.722;2022-12-15T12:46:32;100822.16;;;21.42
62180;BMP280;48172;53.374;10.722;2022-12-15T12:49:05;100825.81;;;21.39
62180;BMP280;48172;53.374;10.722;2022-12-15T12:51:35;100820.34;;;21.39
62180;BMP280;48172;53.374;10.722;2022-12-15T13:02:49;100837.59;;;21.36
62180;BMP280;48172;53.374;10.722;2022-12-15T13:10:37;100836.53;;;21.33
62180;BMP280;48172;53.374;10.722;2022-12-15T13:16:05;100833.81;;;21.33
62180;BMP280;48172;53.374;10.722;2022-12-15T13:24:31;100827.59;;;21.42
62180;BMP280;48172;53.374;10.722;2022-12-15T13:27:11;100822.47;;;21.44
62180;BMP280;48172;53.374;10.722;2022-12-15T13:32:33;100823.38;;;21.50
62180;BMP280;48172;53.374;10.722;2022-12-15T13:35:15;100823.66;;;21.52
62180;BMP280;48172;53.374;10.722;2022-12-15T13:51:02;100808.47;;;21.79
62180;BMP280;48172;53.374;10.722;2022-12-15T13:53:51;100810.72;;;21.80
62180;BMP280;48172;53.374;10.722;2022-12-15T13:56:40;100808.47;;;21.79
62180;BMP280;48172;53.374;10.722;2022-12-15T14:02:28;100801.22;;;21.76
62180;BMP280;48172;53.374;10.722;2022-12-15T14:07:42;100814.81;;;21.76
62180;BMP280;48172;53.374;10.722;2022-12-15T14:10:27;100812.56;;;21.74
62180;BMP280;48172;53.374;10.722;2022-12-15T14:12:57;100817.09;;;21.77
62180;BMP280;48172;53.374;10.722;2022-12-15T14:15:28;100822.53;;;21.77
62180;BMP280;48172;53.374;10.722;2022-12-15T14:17:57;100821.31;;;21.78
62180;BMP280;48172;53.374;10.722;2022-12-15T14:20:29;100822.53;;;21.77
62180;BMP280;48172;53.374;10.722;2022-12-15T14:22:57;100828.25;;;21.79
62180;BMP280;48172;53.374;10.722;2022-12-15T14:25:27;100839.88;;;21.80
62180;BMP280;48172;53.374;10.722;2022-12-15T14:27:55;100833.69;;;21.79
62180;BMP280;48172;53.374;10.722;2022-12-15T14:35:34;100840.34;;;21.78
62180;BMP280;48172;53.374;10.722;2022-12-15T14:38:05;100842.31;;;21.78
62180;BMP280;48172;53.374;10.722;2022-12-15T14:40:35;100838.09;;;21.77
62180;BMP280;48172;53.374;10.722;2022-12-15T14:43:05;100834.31;;;21.74
62180;BMP280;48172;53.374;10.722;2022-12-15T14:45:32;100832.06;;;21.73
62180;BMP280;48172;53.374;10.722;2022-12-15T14:48:04;100834.78;;;21.73
62180;BMP280;48172;53.374;10.722;2022-12-15T14:50:52;100827.06;;;21.71
62180;BMP280;48172;53.374;10.722;2022-12-15T14:53:20;100829.19;;;21.67
62180;BMP280;48172;53.374;10.722;2022-12-15T14:55:47;100834.03;;;21.63
62180;BMP280;48172;53.374;10.722;2022-12-15T14:58:30;100835.13;;;21.56
62180;BMP280;48172;53.374;10.722;2022-12-15T15:00:59;100842.38;;;21.50
62180;BMP280;48172;53.374;10.722;2022-12-15T15:03:37;100841.03;;;21.46
62180;BMP280;48172;53.374;10.722;2022-12-15T15:08:48;100842.44;;;21.41
62180;BMP280;48172;53.374;10.722;2022-12-15T15:11:28;100844.06;;;21.39
62180;BMP280;48172;53.374;10.722;2022-12-15T15:14:04;100839.25;;;21.33
62180;BMP280;48172;53.374;10.722;2022-12-15T15:16:33;100843.19;;;21.33
62180;BMP280;48172;53.374;10.722;2022-12-15T15:19:01;100846.19;;;21.35
62180;BMP280;48172;53.374;10.722;2022-12-15T15:21:29;100845.00;;;21.36
62180;BMP280;48172;53.374;10.722;2022-12-15T15:26:34;100843.31;;;21.38
62180;BMP280;48172;53.374;10.722;2022-12-15T15:29:02;100847.88;;;21.41
62180;BMP280;48172;53.374;10.722;2022-12-15T15:31:36;100850.09;;;21.43
62180;BMP280;48172;53.374;10.722;2022-12-15T15:34:07;100850.44;;;21.45
62180;BMP280;48172;53.374;10.722;2022-12-15T15:36:36;100851.44;;;21.47
62180;BMP280;48172;53.374;10.722;2022-12-15T15:39:12;100862.31;;;21.47
62180;BMP280;48172;53.374;10.722;2022-12-15T15:41:39;100867.31;;;21.49
62180;BMP280;48172;53.374;10.722;2022-12-15T15:44:12;100861.41;;;21.50
62180;BMP280;48172;53.374;10.722;2022-12-15T15:46:45;100864.88;;;21.51
62180;BMP280;48172;53.374;10.722;2022-12-15T15:49:15;100865.94;;;21.53
62180;BMP280;48172;53.374;10.722;2022-12-15T15:51:43;100863.06;;;21.57
62180;BMP280;48172;53.374;10.722;2022-12-15T15:54:12;100864.56;;;21.58
62180;BMP280;48172;53.374;10.722;2022-12-15T15:56:40;100862.91;;;21.60
62180;BMP280;48172;53.374;10.722;2022-12-15T15:59:12;100862.44;;;21.62
62180;BMP280;48172;53.374;10.722;2022-12-15T16:01:39;100865.47;;;21.64
62180;BMP280;48172;53.374;10.722;2022-12-15T16:04:06;100865.00;;;21.65
62180;BMP280;48172;53.374;10.722;2022-12-15T16:06:35;100861.56;;;21.65
62180;BMP280;48172;53.374;10.722;2022-12-15T16:09:10;100868.94;;;21.64
62180;BMP280;48172;53.374;10.722;2022-12-15T16:11:37;100869.38;;;21.63
62180;BMP280;48172;53.374;10.722;2022-12-15T16:14:10;100864.13;;;21.59
62180;BMP280;48172;53.374;10.722;2022-12-15T16:16:37;100853.06;;;21.54
62180;BMP280;48172;53.374;10.722;2022-12-15T16:19:03;100854.19;;;21.47
62180;BMP280;48172;53.374;10.722;2022-12-15T16:21:30;100856.75;;;21.42
62180;BMP280;48172;53.374;10.722;2022-12-15T16:23:57;100852.38;;;21.35
62180;BMP280;48172;53.374;10.722;2022-12-15T16:26:31;100856.94;;;21.29
62180;BMP280;48172;53.374;10.722;2022-12-15T16:28:58;100862.97;;;21.24
62180;BMP280;48172;53.374;10.722;2022-12-15T16:31:33;100862.81;;;21.18
62180;BMP280;48172;53.374;10.722;2022-12-15T16:34:07;100863.41;;;21.13
62180;BMP280;48172;53.374;10.722;2022-12-15T16:36:33;100860.56;;;21.08
62180;BMP280;48172;53.374;10.722;2022-12-15T16:39:00;100858.88;;;21.01
62180;BMP280;48172;53.374;10.722;2022-12-15T16:41:27;100867.66;;;20.96
62180;BMP280;48172;53.374;10.722;2022-12-15T16:43:53;100871.41;;;20.89
62180;BMP280;48172;53.374;10.722;2022-12-15T16:46:20;100875.94;;;20.83